createdAt,value
2017-06-22T00:02:06.365Z,23.00
2017-06-22T00:04:33.849Z,22.90
2017-06-22T00:07:01.382Z,22.90
2017-06-22T00:09:28.864Z,22.90
2017-06-22T00:11:56.380Z,22.80
2017-06-22T00:14:23.866Z,22.80
2017-06-22T00:16:51.354Z,22.80
2017-06-22T00:19:18.853Z,22.80
2017-06-22T00:21:46.341Z,22.70
2017-06-22T00:24:13.845Z,22.80
2017-06-22T00:26:41.353Z,22.70
2017-06-22T00:29:08.865Z,22.70
2017-06-22T00:31:36.353Z,22.70
2017-06-22T00:34:03.842Z,22.70
2017-06-22T00:36:31.353Z,22.60
2017-06-22T00:38:58.838Z,22.60
2017-06-22T00:41:26.342Z,22.60
2017-06-22T00:43:53.826Z,22.60
2017-06-22T00:46:21.319Z,22.50
2017-06-22T00:48:48.817Z,22.50
2017-06-22T00:51:16.301Z,22.50
2017-06-22T00:53:43.805Z,22.50
2017-06-22T00:56:11.293Z,22.50
2017-06-22T00:58:38.811Z,22.50
2017-06-22T01:01:06.310Z,22.40
2017-06-22T01:03:33.797Z,22.40
2017-06-22T01:06:01.304Z,22.40
2017-06-22T01:08:28.791Z,22.40
2017-06-22T01:10:56.306Z,22.30
2017-06-22T01:13:23.797Z,22.40
2017-06-22T01:15:51.285Z,22.30
2017-06-22T01:18:18.811Z,22.30
2017-06-22T01:20:46.302Z,22.30
2017-06-22T01:23:13.815Z,22.30
2017-06-22T01:25:41.301Z,22.30
2017-06-22T01:28:08.793Z,22.20
2017-06-22T01:30:36.310Z,22.20
2017-06-22T01:33:03.794Z,22.20
2017-06-22T01:35:31.301Z,22.20
2017-06-22T01:37:58.793Z,22.10
2017-06-22T01:40:26.281Z,22.10
2017-06-22T01:42:53.786Z,22.10
2017-06-22T01:45:21.282Z,22.10
2017-06-22T01:47:48.787Z,22.10
2017-06-22T01:50:16.270Z,22.10
2017-06-22T01:52:43.768Z,22.00
2017-06-22T01:55:11.278Z,22.00
2017-06-22T01:57:38.766Z,22.00
2017-06-22T02:00:06.297Z,22.00
2017-06-22T02:02:33.790Z,22.00
2017-06-22T02:05:01.291Z,21.90
2017-06-22T02:07:28.793Z,21.90
2017-06-22T02:09:56.286Z,21.90
2017-06-22T02:12:23.806Z,21.90
2017-06-22T02:14:51.299Z,21.90
2017-06-22T02:17:18.825Z,21.80
2017-06-22T02:19:46.334Z,21.80
2017-06-22T02:22:13.827Z,21.80
2017-06-22T02:24:41.334Z,21.80
2017-06-22T02:27:08.830Z,21.80
2017-06-22T02:29:36.337Z,21.80
2017-06-22T02:32:03.825Z,21.80
2017-06-22T02:34:31.316Z,21.70
2017-06-22T02:36:58.825Z,21.70
2017-06-22T02:39:26.314Z,21.80
2017-06-22T02:41:53.855Z,21.70
2017-06-22T02:44:21.361Z,21.70
2017-06-22T02:46:48.859Z,21.70
2017-06-22T02:49:16.365Z,21.70
2017-06-22T02:51:43.853Z,21.70
2017-06-22T02:54:11.363Z,21.70
2017-06-22T02:56:38.854Z,21.70
2017-06-22T02:59:06.347Z,21.70
2017-06-22T03:01:33.854Z,21.70
2017-06-22T03:04:01.346Z,21.70
2017-06-22T03:06:28.858Z,21.60
2017-06-22T03:08:56.349Z,21.60
2017-06-22T03:11:23.837Z,21.60
2017-06-22T03:13:51.349Z,21.60
2017-06-22T03:16:18.841Z,21.60
2017-06-22T03:18:46.349Z,21.60
2017-06-22T03:21:13.838Z,21.60
2017-06-22T03:23:41.361Z,21.60
2017-06-22T03:26:08.862Z,21.60
2017-06-22T03:28:36.354Z,21.60
2017-06-22T03:31:03.862Z,21.60
2017-06-22T03:33:31.354Z,21.60
2017-06-22T03:35:58.869Z,21.50
2017-06-22T03:38:26.362Z,21.50
2017-06-22T03:40:54.701Z,21.50
2017-06-22T03:43:22.213Z,21.50
2017-06-22T03:45:49.702Z,21.50
2017-06-22T03:48:17.209Z,21.50
2017-06-22T03:50:44.705Z,21.50
2017-06-22T03:53:12.210Z,21.50
2017-06-22T03:55:39.745Z,21.50
2017-06-22T03:58:07.238Z,21.50
2017-06-22T04:00:34.750Z,21.50
2017-06-22T04:03:02.243Z,21.50
2017-06-22T04:05:29.753Z,21.50
2017-06-22T04:07:57.246Z,21.60
2017-06-22T04:10:25.681Z,21.60
2017-06-22T04:12:53.201Z,21.60
2017-06-22T04:15:20.697Z,21.60
2017-06-22T04:17:48.218Z,21.60
2017-06-22T04:20:15.710Z,21.60
2017-06-22T04:22:43.201Z,21.60
2017-06-22T04:25:10.710Z,21.70
2017-06-22T04:27:38.206Z,21.70
2017-06-22T04:30:05.754Z,21.70
2017-06-22T04:32:33.245Z,21.70
2017-06-22T04:35:00.734Z,21.70
2017-06-22T04:37:28.241Z,21.80
2017-06-22T04:39:55.733Z,21.80
2017-06-22T04:42:23.261Z,21.90
2017-06-22T04:44:50.754Z,21.90
2017-06-22T04:47:18.245Z,21.90
2017-06-22T04:49:45.755Z,22.00
2017-06-22T04:52:13.245Z,22.10
2017-06-22T04:54:40.745Z,22.10
2017-06-22T04:57:08.237Z,22.20
2017-06-22T04:59:35.749Z,22.40
2017-06-22T05:02:03.246Z,22.50
2017-06-22T05:04:30.738Z,22.60
2017-06-22T05:06:58.247Z,22.80
2017-06-22T05:09:25.741Z,22.90
2017-06-22T05:11:53.259Z,23.10
2017-06-22T05:14:20.745Z,23.30
2017-06-22T05:16:48.981Z,23.50
2017-06-22T05:19:16.474Z,23.70
2017-06-22T05:21:43.965Z,23.90
2017-06-22T05:24:11.481Z,24.10
2017-06-22T05:26:38.973Z,24.30
2017-06-22T05:29:06.479Z,24.60
2017-06-22T05:31:33.966Z,24.80
2017-06-22T05:34:01.494Z,25.00
2017-06-22T05:36:28.986Z,25.30
2017-06-22T05:38:56.478Z,25.50
2017-06-22T05:41:23.985Z,25.70
2017-06-22T05:43:51.477Z,25.90
2017-06-22T05:46:18.982Z,26.20
2017-06-22T05:48:46.473Z,26.30
2017-06-22T05:51:13.997Z,26.50
2017-06-22T05:53:41.485Z,26.70
2017-06-22T05:56:08.974Z,26.90
2017-06-22T05:58:36.492Z,27.10
2017-06-22T06:01:03.983Z,27.30
2017-06-22T06:03:31.493Z,27.40
2017-06-22T06:05:58.989Z,27.50
2017-06-22T06:08:26.517Z,27.70
2017-06-22T06:10:54.834Z,27.90
2017-06-22T06:13:22.325Z,28.00
2017-06-22T06:15:49.826Z,28.20
2017-06-22T06:18:17.317Z,28.40
2017-06-22T06:20:44.826Z,28.60
2017-06-22T06:23:12.318Z,28.80
2017-06-22T06:25:39.838Z,28.90
2017-06-22T06:28:07.342Z,29.10
2017-06-22T06:30:34.842Z,29.30
2017-06-22T06:33:02.350Z,29.40
2017-06-22T06:35:29.847Z,29.60
2017-06-22T06:37:57.362Z,29.80
2017-06-22T06:40:24.858Z,30.00
2017-06-22T06:42:52.355Z,30.20
2017-06-22T06:45:19.871Z,30.40
2017-06-22T06:47:47.374Z,30.60
2017-06-22T06:50:14.886Z,30.80
2017-06-22T06:52:42.383Z,30.90
2017-06-22T06:55:09.890Z,31.00
2017-06-22T06:57:37.386Z,31.20
2017-06-22T07:00:04.922Z,31.30
2017-06-22T07:02:32.422Z,31.40
2017-06-22T07:04:59.930Z,31.50
2017-06-22T07:07:27.445Z,31.50
2017-06-22T07:09:54.942Z,31.60
2017-06-22T07:12:22.462Z,31.70
2017-06-22T07:14:49.957Z,31.70
2017-06-22T07:17:17.481Z,31.70
2017-06-22T07:19:44.977Z,31.70
2017-06-22T07:22:12.479Z,31.80
2017-06-22T07:24:39.994Z,31.90
2017-06-22T07:27:07.497Z,31.90
2017-06-22T07:29:35.013Z,32.00
2017-06-22T07:32:02.514Z,32.10
2017-06-22T07:34:30.037Z,32.10
2017-06-22T07:36:57.540Z,32.20
2017-06-22T07:39:25.048Z,32.30
2017-06-22T07:41:52.558Z,32.50
2017-06-22T07:44:20.058Z,32.60
2017-06-22T07:46:47.574Z,32.80
2017-06-22T07:49:15.065Z,32.90
2017-06-22T07:51:42.583Z,32.90
2017-06-22T07:54:10.087Z,32.90
2017-06-22T07:56:37.586Z,32.80
2017-06-22T07:59:05.113Z,32.80
2017-06-22T08:01:32.621Z,32.90
2017-06-22T08:04:00.133Z,32.90
2017-06-22T08:06:27.633Z,33.00
2017-06-22T08:08:55.149Z,33.10
2017-06-22T08:11:22.642Z,33.20
2017-06-22T08:13:50.131Z,33.30
2017-06-22T08:16:17.649Z,33.50
2017-06-22T08:18:45.137Z,33.70
2017-06-22T08:21:12.646Z,33.80
2017-06-22T08:23:40.135Z,33.90
2017-06-22T08:26:07.642Z,34.00
2017-06-22T08:28:35.156Z,34.10
2017-06-22T08:31:02.641Z,34.00
2017-06-22T08:33:30.141Z,34.00
2017-06-22T08:35:57.630Z,33.90
2017-06-22T08:38:25.141Z,33.90
2017-06-22T08:40:52.634Z,33.90
2017-06-22T08:43:20.157Z,34.10
2017-06-22T08:45:47.673Z,34.10
2017-06-22T08:48:15.183Z,34.20
2017-06-22T08:50:42.713Z,34.30
2017-06-22T08:53:10.201Z,34.30
2017-06-22T08:55:37.711Z,34.30
2017-06-22T08:58:05.221Z,34.30
2017-06-22T09:00:32.739Z,34.50
2017-06-22T09:03:00.259Z,34.50
2017-06-22T09:05:27.762Z,34.50
2017-06-22T09:07:55.281Z,34.50
2017-06-22T09:10:22.783Z,34.50
2017-06-22T09:12:50.290Z,34.60
2017-06-22T09:15:17.775Z,34.50
2017-06-22T09:17:45.310Z,34.40
2017-06-22T09:20:12.818Z,34.40
2017-06-22T09:22:40.597Z,34.40
2017-06-22T09:25:08.113Z,34.40
2017-06-22T09:27:35.622Z,34.40
2017-06-22T09:30:03.131Z,34.40
2017-06-22T09:32:30.625Z,34.50
2017-06-22T09:34:58.137Z,34.50
2017-06-22T09:37:25.625Z,34.40
2017-06-22T09:39:53.113Z,34.50
2017-06-22T09:42:20.623Z,34.60
2017-06-22T09:44:48.376Z,34.60
2017-06-22T09:47:15.885Z,34.60
2017-06-22T09:49:43.374Z,34.60
2017-06-22T09:52:10.890Z,34.70
2017-06-22T09:54:38.382Z,34.70
2017-06-22T09:57:05.871Z,34.70
2017-06-22T09:59:33.375Z,34.60
2017-06-22T10:02:00.875Z,34.60
2017-06-22T10:04:28.381Z,34.50
2017-06-22T10:06:55.878Z,34.50
2017-06-22T10:09:23.389Z,34.50
2017-06-22T10:11:50.878Z,34.50
2017-06-22T10:14:18.366Z,34.40
2017-06-22T10:16:45.874Z,34.40
2017-06-22T10:19:13.370Z,34.50
2017-06-22T10:21:40.882Z,34.50
2017-06-22T10:24:08.367Z,34.50
2017-06-22T10:26:35.886Z,34.50
2017-06-22T10:29:03.375Z,34.50
2017-06-22T10:31:31.005Z,34.50
2017-06-22T10:33:58.539Z,34.50
2017-06-22T10:36:26.086Z,34.50
2017-06-22T10:38:53.602Z,34.40
2017-06-22T10:41:21.096Z,34.40
2017-06-22T10:43:48.615Z,34.30
2017-06-22T10:46:16.106Z,34.30
2017-06-22T10:48:43.598Z,34.30
2017-06-22T10:51:11.116Z,34.10
2017-06-22T10:53:38.605Z,34.00
2017-06-22T10:56:06.107Z,33.90
2017-06-22T10:58:33.598Z,33.90
2017-06-22T11:01:01.132Z,33.90
2017-06-22T11:03:28.626Z,33.90
2017-06-22T11:05:56.114Z,33.90
2017-06-22T11:08:23.621Z,33.80
2017-06-22T11:10:51.109Z,33.90
2017-06-22T11:13:18.662Z,33.80
2017-06-22T11:15:46.201Z,33.90
2017-06-22T11:18:13.709Z,33.90
2017-06-22T11:20:41.195Z,34.00
2017-06-22T11:23:08.694Z,34.00
2017-06-22T11:25:36.201Z,34.00
2017-06-22T11:28:03.710Z,34.00
2017-06-22T11:30:31.221Z,34.00
2017-06-22T11:32:58.721Z,34.10
2017-06-22T11:35:26.234Z,34.10
2017-06-22T11:37:53.747Z,34.10
2017-06-22T11:40:21.234Z,34.10
2017-06-22T11:42:48.734Z,34.10
2017-06-22T11:45:16.233Z,34.20
2017-06-22T11:47:43.741Z,34.30
2017-06-22T11:50:11.232Z,34.30
2017-06-22T11:52:38.821Z,34.30
2017-06-22T11:55:06.318Z,34.30
2017-06-22T11:57:33.838Z,34.30
2017-06-22T12:00:01.346Z,34.40
2017-06-22T12:02:28.825Z,34.40
2017-06-22T12:04:56.325Z,34.40
2017-06-22T12:07:23.836Z,34.50
2017-06-22T12:09:51.374Z,34.60
2017-06-22T12:12:18.893Z,34.60
2017-06-22T12:14:46.378Z,34.60
2017-06-22T12:17:13.886Z,34.60
2017-06-22T12:19:41.371Z,34.70
2017-06-22T12:22:08.873Z,34.80
2017-06-22T12:24:36.359Z,34.90
2017-06-22T12:27:03.886Z,34.90
2017-06-22T12:29:31.373Z,35.00
2017-06-22T12:31:58.865Z,35.00
2017-06-22T12:34:26.373Z,35.00
2017-06-22T12:36:53.858Z,35.10
2017-06-22T12:39:21.357Z,35.10
2017-06-22T12:41:48.841Z,35.10
2017-06-22T12:44:16.342Z,35.10
2017-06-22T12:46:43.825Z,35.20
2017-06-22T12:49:11.329Z,35.10
2017-06-22T12:51:38.818Z,35.20
2017-06-22T12:54:06.309Z,35.20
2017-06-22T12:56:33.810Z,35.30
2017-06-22T12:59:01.293Z,35.30
2017-06-22T13:01:28.796Z,35.30
2017-06-22T13:03:56.277Z,35.40
2017-06-22T13:06:23.785Z,35.40
2017-06-22T13:08:51.265Z,35.50
2017-06-22T13:11:18.750Z,35.50
2017-06-22T13:13:46.257Z,35.60
2017-06-22T13:16:13.741Z,35.70
2017-06-22T13:18:41.241Z,35.70
2017-06-22T13:21:08.729Z,35.80
2017-06-22T13:23:36.247Z,35.80
2017-06-22T13:26:03.741Z,35.80
2017-06-22T13:28:31.225Z,35.70
2017-06-22T13:30:58.729Z,35.80
2017-06-22T13:33:26.213Z,35.80
2017-06-22T13:35:53.717Z,35.90
2017-06-22T13:38:21.201Z,35.90
2017-06-22T13:40:48.690Z,36.00
2017-06-22T13:43:16.189Z,36.00
2017-06-22T13:45:43.669Z,36.00
2017-06-22T13:48:11.170Z,36.00
2017-06-22T13:50:38.660Z,36.00
2017-06-22T13:53:06.182Z,36.00
2017-06-22T13:55:33.669Z,36.10
2017-06-22T13:58:01.157Z,36.10
2017-06-22T14:00:28.657Z,36.10
2017-06-22T14:02:56.149Z,36.10
2017-06-22T14:05:23.657Z,36.10
2017-06-22T14:07:51.141Z,36.20
2017-06-22T14:10:18.650Z,36.20
2017-06-22T14:12:46.133Z,36.20
2017-06-22T14:15:13.613Z,36.20
2017-06-22T14:17:41.113Z,36.20
2017-06-22T14:20:08.600Z,36.20
2017-06-22T14:22:36.102Z,36.20
2017-06-22T14:25:03.590Z,36.20
2017-06-22T14:27:31.133Z,36.10
2017-06-22T14:29:58.637Z,36.00
2017-06-22T14:32:26.157Z,36.10
2017-06-22T14:34:53.669Z,36.10
2017-06-22T14:37:21.165Z,36.10
2017-06-22T14:39:48.703Z,36.10
2017-06-22T14:42:16.783Z,36.20
2017-06-22T14:44:44.393Z,36.10
2017-06-22T14:47:11.913Z,36.20
2017-06-22T14:49:39.450Z,36.20
2017-06-22T14:52:06.955Z,36.20
2017-06-22T14:54:34.491Z,36.20
2017-06-22T14:57:02.002Z,36.20
2017-06-22T14:59:29.498Z,36.10
2017-06-22T15:01:57.038Z,36.20
2017-06-22T15:04:24.565Z,36.20
2017-06-22T15:06:52.057Z,36.30
2017-06-22T15:09:19.553Z,36.30
2017-06-22T15:11:47.042Z,36.40
2017-06-22T15:14:14.556Z,36.30
2017-06-22T15:16:42.045Z,36.20
2017-06-22T15:19:09.553Z,36.30
2017-06-22T15:21:37.038Z,36.30
2017-06-22T15:24:04.521Z,36.30
2017-06-22T15:26:32.023Z,36.40
2017-06-22T15:28:59.510Z,36.30
2017-06-22T15:31:27.013Z,36.20
2017-06-22T15:33:54.497Z,36.20
2017-06-22T15:36:22.001Z,36.20
2017-06-22T15:38:49.490Z,36.20
2017-06-22T15:41:16.977Z,36.20
2017-06-22T15:43:44.482Z,36.30
2017-06-22T15:46:11.969Z,36.30
2017-06-22T15:48:39.474Z,36.30
2017-06-22T15:51:06.958Z,36.30
2017-06-22T15:53:34.462Z,36.30
2017-06-22T15:56:01.950Z,36.40
2017-06-22T15:58:29.438Z,36.40
2017-06-22T16:00:56.937Z,36.40
2017-06-22T16:03:24.421Z,36.40
2017-06-22T16:05:51.922Z,36.40
2017-06-22T16:08:19.421Z,36.40
2017-06-22T16:10:46.930Z,36.40
2017-06-22T16:13:14.435Z,36.40
2017-06-22T16:15:41.974Z,36.40
2017-06-22T16:18:09.559Z,36.40
2017-06-22T16:20:37.065Z,36.40
2017-06-22T16:23:04.594Z,36.40
2017-06-22T16:25:32.105Z,36.40
2017-06-22T16:27:59.633Z,36.40
2017-06-22T16:30:27.153Z,36.40
2017-06-22T16:32:54.679Z,36.40
2017-06-22T16:35:22.186Z,36.40
2017-06-22T16:37:49.701Z,36.30
2017-06-22T16:40:17.270Z,36.30
2017-06-22T16:42:44.782Z,36.20
2017-06-22T16:45:12.302Z,36.20
2017-06-22T16:47:39.806Z,36.20
2017-06-22T16:50:07.302Z,36.10
2017-06-22T16:52:34.865Z,36.10
2017-06-22T16:55:02.358Z,36.10
2017-06-22T16:57:29.866Z,36.00
2017-06-22T16:59:57.354Z,36.00
2017-06-22T17:02:24.853Z,36.00
2017-06-22T17:04:52.338Z,35.90
2017-06-22T17:07:19.829Z,35.80
2017-06-22T17:09:47.330Z,35.70
2017-06-22T17:12:14.829Z,35.60
2017-06-22T17:14:42.334Z,35.60
2017-06-22T17:17:09.817Z,35.60
2017-06-22T17:19:37.301Z,35.50
2017-06-22T17:22:04.805Z,35.50
2017-06-22T17:24:32.290Z,35.40
2017-06-22T17:26:59.818Z,35.40
2017-06-22T17:29:27.302Z,35.30
2017-06-22T17:31:54.813Z,35.30
2017-06-22T17:34:22.317Z,35.30
2017-06-22T17:36:49.797Z,35.20
2017-06-22T17:39:17.310Z,35.10
2017-06-22T17:41:44.793Z,35.00
2017-06-22T17:44:12.299Z,35.00
2017-06-22T17:46:39.785Z,34.90
2017-06-22T17:49:07.275Z,34.90
2017-06-22T17:51:34.781Z,34.80
2017-06-22T17:54:02.279Z,34.70
2017-06-22T17:56:30.183Z,34.70
2017-06-22T17:58:57.682Z,34.60
2017-06-22T18:01:25.180Z,34.50
2017-06-22T18:03:52.690Z,34.50
2017-06-22T18:06:20.210Z,34.40
2017-06-22T18:08:47.730Z,34.30
2017-06-22T18:11:15.226Z,34.20
2017-06-22T18:13:42.757Z,34.10
2017-06-22T18:16:10.283Z,33.90
2017-06-22T18:18:37.786Z,33.90
2017-06-22T18:21:05.309Z,33.80
2017-06-22T18:23:32.814Z,33.70
2017-06-22T18:26:00.354Z,33.50
2017-06-22T18:28:27.851Z,33.50
2017-06-22T18:30:55.359Z,33.30
2017-06-22T18:33:22.898Z,33.30
2017-06-22T18:35:50.394Z,33.20
2017-06-22T18:38:17.910Z,33.00
2017-06-22T18:40:45.496Z,32.90
2017-06-22T18:43:12.994Z,32.80
2017-06-22T18:45:40.536Z,32.70
2017-06-22T18:48:08.038Z,32.60
2017-06-22T18:50:35.589Z,32.50
2017-06-22T18:53:03.119Z,32.40
2017-06-22T18:55:30.637Z,32.30
2017-06-22T18:57:58.147Z,32.20
2017-06-22T19:00:25.762Z,32.10
2017-06-22T19:02:53.325Z,32.00
2017-06-22T19:05:20.827Z,31.90
2017-06-22T19:07:48.326Z,31.80
2017-06-22T19:10:15.842Z,31.70
2017-06-22T19:12:43.345Z,31.60
2017-06-22T19:15:10.873Z,31.50
2017-06-22T19:17:38.370Z,31.40
2017-06-22T19:20:05.908Z,31.30
2017-06-22T19:22:33.437Z,31.20
2017-06-22T19:25:00.934Z,31.10
2017-06-22T19:27:28.456Z,31.00
2017-06-22T19:29:55.997Z,31.00
2017-06-22T19:32:23.498Z,30.90
2017-06-22T19:34:51.035Z,30.80
2017-06-22T19:37:18.534Z,30.70
2017-06-22T19:39:46.067Z,30.70
2017-06-22T19:42:13.566Z,30.60
2017-06-22T19:44:41.061Z,30.50
2017-06-22T19:47:08.575Z,30.50
2017-06-22T19:49:36.071Z,30.40
2017-06-22T19:52:03.725Z,30.30
2017-06-22T19:54:31.231Z,30.30
2017-06-22T19:56:58.726Z,30.20
2017-06-22T19:59:26.234Z,30.10
2017-06-22T20:01:54.569Z,30.10
2017-06-22T20:04:22.080Z,30.00
2017-06-22T20:06:49.874Z,29.90
2017-06-22T20:09:17.408Z,29.80
2017-06-22T20:11:44.905Z,29.80
2017-06-22T20:14:12.397Z,29.70
2017-06-22T20:16:39.905Z,29.60
2017-06-22T20:19:07.398Z,29.60
2017-06-22T20:21:34.921Z,29.50
2017-06-22T20:24:02.409Z,29.40
2017-06-22T20:26:29.905Z,29.40
2017-06-22T20:28:57.416Z,29.30
2017-06-22T20:31:24.911Z,29.20
2017-06-22T20:33:52.425Z,29.20
2017-06-22T20:36:19.922Z,29.10
2017-06-22T20:38:47.413Z,29.00
2017-06-22T20:41:14.921Z,29.00
2017-06-22T20:43:42.413Z,28.90
2017-06-22T20:46:09.929Z,28.90
2017-06-22T20:48:37.422Z,28.80
2017-06-22T20:51:04.917Z,28.80
2017-06-22T20:53:32.430Z,28.70
2017-06-22T20:55:59.929Z,28.60
2017-06-22T20:58:27.442Z,28.60
2017-06-22T21:00:54.933Z,28.60
2017-06-22T21:03:22.426Z,28.50
2017-06-22T21:05:49.934Z,28.50
2017-06-22T21:08:17.421Z,28.50
2017-06-22T21:10:44.937Z,28.40
2017-06-22T21:13:12.429Z,28.40
2017-06-22T21:15:39.918Z,28.40
2017-06-22T21:18:07.433Z,28.30
2017-06-22T21:20:34.922Z,28.20
2017-06-22T21:23:02.438Z,28.20
2017-06-22T21:25:29.934Z,28.20
2017-06-22T21:27:57.425Z,28.20
2017-06-22T21:30:24.933Z,28.10
2017-06-22T21:32:52.428Z,28.10
2017-06-22T21:35:19.938Z,28.00
2017-06-22T21:37:47.433Z,28.00
2017-06-22T21:40:14.929Z,28.00
2017-06-22T21:42:42.438Z,28.00
2017-06-22T21:45:09.931Z,27.90
2017-06-22T21:47:37.446Z,27.90
2017-06-22T21:50:04.937Z,27.90
2017-06-22T21:52:32.421Z,27.90
2017-06-22T21:54:59.931Z,27.90
2017-06-22T21:57:27.433Z,27.90
2017-06-22T21:59:54.943Z,27.80
2017-06-22T22:02:22.438Z,27.80
2017-06-22T22:04:49.932Z,27.80
2017-06-22T22:07:17.436Z,27.80
2017-06-22T22:09:44.926Z,27.80
2017-06-22T22:12:12.434Z,27.70
2017-06-22T22:14:39.933Z,27.70
2017-06-22T22:17:07.441Z,27.70
2017-06-22T22:19:34.953Z,27.70
2017-06-22T22:22:02.462Z,27.70
2017-06-22T22:24:29.970Z,27.70
2017-06-22T22:26:57.461Z,27.60
2017-06-22T22:29:24.972Z,27.60
2017-06-22T22:31:52.466Z,27.60
2017-06-22T22:34:19.988Z,27.50
2017-06-22T22:36:47.481Z,27.50
2017-06-22T22:39:14.969Z,27.50
2017-06-22T22:41:42.498Z,27.50
2017-06-22T22:44:09.985Z,27.40
2017-06-22T22:46:37.493Z,27.40
2017-06-22T22:49:04.991Z,27.40
2017-06-22T22:51:32.513Z,27.40
2017-06-22T22:54:00.000Z,27.40
2017-06-22T22:56:27.493Z,27.40
2017-06-22T22:58:55.001Z,27.40
2017-06-22T23:01:22.491Z,27.40
2017-06-22T23:03:49.997Z,27.40
2017-06-22T23:06:17.486Z,27.30
2017-06-22T23:08:45.005Z,27.30
2017-06-22T23:11:12.497Z,27.30
2017-06-22T23:13:39.990Z,27.30
2017-06-22T23:16:07.499Z,27.20
2017-06-22T23:18:34.989Z,27.20
2017-06-22T23:21:02.498Z,27.20
2017-06-22T23:23:29.994Z,27.20
2017-06-22T23:25:57.510Z,27.20
2017-06-22T23:28:25.001Z,27.20
2017-06-22T23:30:52.494Z,27.10
2017-06-22T23:33:20.006Z,27.10
2017-06-22T23:35:47.501Z,27.10
2017-06-22T23:38:15.010Z,27.10
2017-06-22T23:40:42.503Z,27.10
2017-06-22T23:43:10.026Z,27.10
2017-06-22T23:45:37.523Z,27.10
2017-06-22T23:48:05.014Z,27.10
2017-06-22T23:50:32.517Z,27.10
2017-06-22T23:53:00.006Z,27.10
2017-06-22T23:55:27.518Z,27.10
2017-06-22T23:57:55.017Z,27.10
